Vail, Arizona
Current Conditions -  °F | °C
As of 6:58 PM on Saturday 25 Oct 2014 (Local Time) from KDMA Reporting Station
Broken Clouds Broken Clouds  
Wind Chill: 83°   Ceiling: 11000
Heat Index: 83°   Visibility: 10mi
Dew Point: 51°   Wind: 8mph
Humidity: 33%   Direction: 250°WSW
Pressure: 30.02"   Gusts: NA
Location:  32.05°N, 110.71°W
Report Text: KDMA 260158Z AUTO 25007KT 10SM BKN110 28/11 A3002 RMK AO2 SLP129 T02820107 $
Loading
Personal Weather Stations






























Interactive Weather Map
Tropical Storm Tracking
New forecast layout! Learn more

10-Day Weather Forecast

Advertisements
Track Severe Weather on mobile